Fairbank, Illinois
Current Conditions -  °F | °C
As of 11:52 AM on Thursday 30 Oct 2014 (Local Time) from KMLI Reporting Station
Overcast Overcast  
Wind Chill: 45°   Ceiling: 8000
Heat Index: 47°   Visibility: 10mi
Dew Point: 36°   Wind: 5mph
Humidity: 66%   Direction: 140°SE
Pressure: 30.1"   Gusts: NA
Location:  41.4828°N, 90.1801°W
Report Text: KMLI 301652Z 14004KT 10SM BKN080 OVC095 08/02 A3010 RMK AO2 SLP196 T00830022
Loading
Personal Weather Stations






























Interactive Weather Map
Tropical Storm Tracking
New forecast layout! Learn more

10-Day Weather Forecast

Advertisements
Track Severe Weather on mobile